Sarasota Bradenton International Airport Sarasota,Bradenton US
ICAO: KSRQ
IATA: SRQ
Category: Large
Scheduled Services: Yes

Elevation: 30 ft
TransAlt. 18000 ft.

Airport Communications:
TAMPA APP/DEP:119.65
ASOS:134.15
ATIS:134.15
CLNC DEL:118.25
CTAF:120.1
GND:121.9
ST PETERSBURG RDO:115.2
TWR:120.1
UNICOM:122.95

KSRQ Zoom In..

If you have problems with the map follow the link
https://www.worldairports.se/pages/airport.php?
ICAO=KSRQ

Runways:

(A) RW 04 length 5009 ft width 150 ft
---- / hdg 43

(B) RW 14 length 9500 ft width 150 ft
ILS 111.30 / hdg 139

(C) RW 22 length 5009 ft width 150 ft
---- / hdg 223

(D) RW 32 length 9500 ft width 150 ft
ILS 109.70 / hdg 319

Location; KSRQ
Day. 11 / Time. 12.53 Zulu
* Altimeter: 30.15
* Temperature: 21° c. 69.8°f.
* Wind from: 000° Speed 00 kn.
Dewpoint: 20° c.
Visibility: 1/4 Statute Miles.
Conditions: Fog.

KSRQ 111253Z 00000KT 1/4SM FG VV001 21/20 A3015 RMK AO2 SLP210 T02060200


Wind - Calm.

 
 
jpsmedia worldairports.se 2019   terms of use